sensor_id;sensor_type;location;lat;lon;timestamp;P1;durP1;ratioP1;P2;durP2;ratioP2
55346;SDS011;41218;55.700;38.270;2022-12-11T00:02:12;3.13;;;1.75;;
55346;SDS011;41218;55.700;38.270;2022-12-11T00:07:12;2.60;;;1.43;;
55346;SDS011;41218;55.700;38.270;2022-12-11T00:12:13;5.73;;;2.10;;
55346;SDS011;41218;55.700;38.270;2022-12-11T00:17:13;4.10;;;2.10;;
55346;SDS011;41218;55.700;38.270;2022-12-11T00:22:13;4.70;;;2.17;;
55346;SDS011;41218;55.700;38.270;2022-12-11T00:27:14;6.83;;;2.43;;
55346;SDS011;41218;55.700;38.270;2022-12-11T00:32:15;5.47;;;2.20;;
55346;SDS011;41218;55.700;38.270;2022-12-11T00:37:15;3.20;;;1.90;;
55346;SDS011;41218;55.700;38.270;2022-12-11T00:42:16;3.88;;;1.80;;
55346;SDS011;41218;55.700;38.270;2022-12-11T00:47:16;4.83;;;1.40;;
55346;SDS011;41218;55.700;38.270;2022-12-11T00:52:17;3.97;;;1.70;;
55346;SDS011;41218;55.700;38.270;2022-12-11T00:57:17;3.20;;;1.70;;
55346;SDS011;41218;55.700;38.270;2022-12-11T01:02:18;4.67;;;2.00;;
55346;SDS011;41218;55.700;38.270;2022-12-11T01:07:18;2.47;;;1.57;;
55346;SDS011;41218;55.700;38.270;2022-12-11T01:12:19;3.20;;;1.70;;
55346;SDS011;41218;55.700;38.270;2022-12-11T01:17:19;5.73;;;2.33;;
55346;SDS011;41218;55.700;38.270;2022-12-11T01:22:20;3.80;;;2.07;;
55346;SDS011;41218;55.700;38.270;2022-12-11T01:27:21;1.67;;;1.20;;
55346;SDS011;41218;55.700;38.270;2022-12-11T01:32:21;6.07;;;2.70;;
55346;SDS011;41218;55.700;38.270;2022-12-11T01:37:22;3.37;;;1.30;;
55346;SDS011;41218;55.700;38.270;2022-12-11T01:42:22;2.13;;;1.03;;
55346;SDS011;41218;55.700;38.270;2022-12-11T01:52:24;2.63;;;1.20;;
55346;SDS011;41218;55.700;38.270;2022-12-11T01:57:25;2.40;;;1.30;;
55346;SDS011;41218;55.700;38.270;2022-12-11T02:02:27;3.13;;;1.60;;
55346;SDS011;41218;55.700;38.270;2022-12-11T02:07:30;13.18;;;3.85;;
55346;SDS011;41218;55.700;38.270;2022-12-11T02:12:40;8.05;;;2.45;;
55346;SDS011;41218;55.700;38.270;2022-12-11T02:17:51;10.05;;;3.35;;
55346;SDS011;41218;55.700;38.270;2022-12-11T02:33:38;20.08;;;4.43;;
55346;SDS011;41218;55.700;38.270;2022-12-11T02:43:49;21.75;;;4.85;;
55346;SDS011;41218;55.700;38.270;2022-12-11T02:48:51;15.98;;;4.22;;
55346;SDS011;41218;55.700;38.270;2022-12-11T02:53:54;16.17;;;4.68;;
55346;SDS011;41218;55.700;38.270;2022-12-11T02:58:59;19.85;;;4.15;;
55346;SDS011;41218;55.700;38.270;2022-12-11T03:04:03;16.27;;;4.53;;
55346;SDS011;41218;55.700;38.270;2022-12-11T03:09:04;14.18;;;4.00;;
55346;SDS011;41218;55.700;38.270;2022-12-11T03:14:06;11.80;;;3.53;;
55346;SDS011;41218;55.700;38.270;2022-12-11T03:24:33;15.43;;;3.78;;
55346;SDS011;41218;55.700;38.270;2022-12-11T03:29:52;18.55;;;3.20;;
55346;SDS011;41218;55.700;38.270;2022-12-11T03:35:10;13.35;;;3.08;;
55346;SDS011;41218;55.700;38.270;2022-12-11T03:40:16;14.02;;;3.70;;
55346;SDS011;41218;55.700;38.270;2022-12-11T03:45:20;12.00;;;3.45;;
55346;SDS011;41218;55.700;38.270;2022-12-11T03:50:24;17.67;;;4.05;;
55346;SDS011;41218;55.700;38.270;2022-12-11T03:55:27;18.38;;;3.92;;
55346;SDS011;41218;55.700;38.270;2022-12-11T04:00:30;13.15;;;4.32;;
55346;SDS011;41218;55.700;38.270;2022-12-11T04:05:31;20.35;;;4.68;;
55346;SDS011;41218;55.700;38.270;2022-12-11T04:10:31;17.40;;;5.73;;
55346;SDS011;41218;55.700;38.270;2022-12-11T04:15:35;11.75;;;4.07;;
55346;SDS011;41218;55.700;38.270;2022-12-11T04:20:36;13.13;;;4.75;;
55346;SDS011;41218;55.700;38.270;2022-12-11T04:26:09;9.98;;;3.95;;
55346;SDS011;41218;55.700;38.270;2022-12-11T04:31:12;12.88;;;3.58;;
55346;SDS011;41218;55.700;38.270;2022-12-11T04:36:16;10.55;;;4.03;;
55346;SDS011;41218;55.700;38.270;2022-12-11T04:41:16;12.40;;;4.10;;
55346;SDS011;41218;55.700;38.270;2022-12-11T04:46:21;13.02;;;4.80;;
55346;SDS011;41218;55.700;38.270;2022-12-11T04:51:23;10.95;;;3.30;;
55346;SDS011;41218;55.700;38.270;2022-12-11T04:56:24;14.05;;;4.50;;
55346;SDS011;41218;55.700;38.270;2022-12-11T05:01:24;16.17;;;3.97;;
55346;SDS011;41218;55.700;38.270;2022-12-11T05:06:25;11.07;;;4.10;;
55346;SDS011;41218;55.700;38.270;2022-12-11T05:11:25;13.77;;;3.73;;
55346;SDS011;41218;55.700;38.270;2022-12-11T05:21:27;10.73;;;3.47;;
55346;SDS011;41218;55.700;38.270;2022-12-11T05:26:28;8.30;;;3.33;;
55346;SDS011;41218;55.700;38.270;2022-12-11T05:31:28;3.30;;;1.63;;
55346;SDS011;41218;55.700;38.270;2022-12-11T05:36:30;9.37;;;3.10;;
55346;SDS011;41218;55.700;38.270;2022-12-11T05:41:32;9.70;;;3.08;;
55346;SDS011;41218;55.700;38.270;2022-12-11T05:46:33;10.63;;;3.20;;
55346;SDS011;41218;55.700;38.270;2022-12-11T05:51:34;9.40;;;3.42;;
55346;SDS011;41218;55.700;38.270;2022-12-11T05:56:35;10.83;;;3.50;;
55346;SDS011;41218;55.700;38.270;2022-12-11T06:01:37;11.00;;;3.92;;
55346;SDS011;41218;55.700;38.270;2022-12-11T06:06:39;10.48;;;3.22;;
55346;SDS011;41218;55.700;38.270;2022-12-11T06:11:42;7.82;;;2.80;;
55346;SDS011;41218;55.700;38.270;2022-12-11T06:16:43;7.50;;;2.93;;
55346;SDS011;41218;55.700;38.270;2022-12-11T06:21:44;10.83;;;4.23;;
55346;SDS011;41218;55.700;38.270;2022-12-11T06:26:44;6.88;;;3.70;;
55346;SDS011;41218;55.700;38.270;2022-12-11T06:31:45;15.53;;;4.03;;
55346;SDS011;41218;55.700;38.270;2022-12-11T06:36:45;11.47;;;3.57;;
55346;SDS011;41218;55.700;38.270;2022-12-11T06:41:46;7.97;;;3.43;;
55346;SDS011;41218;55.700;38.270;2022-12-11T06:46:47;13.95;;;4.63;;
55346;SDS011;41218;55.700;38.270;2022-12-11T06:51:47;12.30;;;4.80;;
55346;SDS011;41218;55.700;38.270;2022-12-11T06:56:50;10.88;;;4.22;;
55346;SDS011;41218;55.700;38.270;2022-12-11T07:01:50;10.57;;;3.93;;
55346;SDS011;41218;55.700;38.270;2022-12-11T07:06:51;13.33;;;3.67;;
55346;SDS011;41218;55.700;38.270;2022-12-11T07:11:52;8.80;;;3.42;;
55346;SDS011;41218;55.700;38.270;2022-12-11T07:16:52;11.37;;;3.27;;
55346;SDS011;41218;55.700;38.270;2022-12-11T07:21:53;13.13;;;3.90;;
55346;SDS011;41218;55.700;38.270;2022-12-11T07:26:53;12.77;;;4.10;;
55346;SDS011;41218;55.700;38.270;2022-12-11T07:31:54;6.03;;;2.73;;
55346;SDS011;41218;55.700;38.270;2022-12-11T07:36:54;8.17;;;2.93;;
55346;SDS011;41218;55.700;38.270;2022-12-11T07:41:55;7.40;;;2.93;;
55346;SDS011;41218;55.700;38.270;2022-12-11T07:46:55;11.07;;;3.37;;
55346;SDS011;41218;55.700;38.270;2022-12-11T07:51:56;10.37;;;3.70;;
55346;SDS011;41218;55.700;38.270;2022-12-11T07:56:56;12.27;;;4.47;;
55346;SDS011;41218;55.700;38.270;2022-12-11T08:01:57;8.37;;;3.90;;
55346;SDS011;41218;55.700;38.270;2022-12-11T08:06:57;11.17;;;4.17;;
55346;SDS011;41218;55.700;38.270;2022-12-11T08:11:58;11.63;;;4.57;;
55346;SDS011;41218;55.700;38.270;2022-12-11T08:16:59;11.43;;;4.33;;
55346;SDS011;41218;55.700;38.270;2022-12-11T08:22:02;11.82;;;4.65;;
55346;SDS011;41218;55.700;38.270;2022-12-11T08:27:03;10.98;;;4.43;;
55346;SDS011;41218;55.700;38.270;2022-12-11T08:32:03;13.43;;;5.13;;
55346;SDS011;41218;55.700;38.270;2022-12-11T08:37:04;14.53;;;5.40;;
55346;SDS011;41218;55.700;38.270;2022-12-11T08:42:05;17.13;;;6.00;;
55346;SDS011;41218;55.700;38.270;2022-12-11T08:47:06;12.75;;;5.57;;
55346;SDS011;41218;55.700;38.270;2022-12-11T08:52:08;12.05;;;4.85;;
55346;SDS011;41218;55.700;38.270;2022-12-11T08:57:09;13.83;;;6.13;;
55346;SDS011;41218;55.700;38.270;2022-12-11T09:02:10;17.53;;;6.03;;
55346;SDS011;41218;55.700;38.270;2022-12-11T09:07:11;17.50;;;6.10;;
55346;SDS011;41218;55.700;38.270;2022-12-11T09:12:12;12.53;;;5.33;;
55346;SDS011;41218;55.700;38.270;2022-12-11T09:17:13;15.97;;;6.33;;
55346;SDS011;41218;55.700;38.270;2022-12-11T09:22:13;14.80;;;5.70;;
55346;SDS011;41218;55.700;38.270;2022-12-11T09:27:14;17.40;;;6.10;;
55346;SDS011;41218;55.700;38.270;2022-12-11T09:32:14;15.77;;;6.73;;
55346;SDS011;41218;55.700;38.270;2022-12-11T09:37:15;15.47;;;5.63;;
55346;SDS011;41218;55.700;38.270;2022-12-11T09:58:05;17.92;;;5.82;;
55346;SDS011;41218;55.700;38.270;2022-12-11T10:19:18;11.98;;;5.38;;
55346;SDS011;41218;55.700;38.270;2022-12-11T10:29:32;16.23;;;7.28;;
55346;SDS011;41218;55.700;38.270;2022-12-11T10:34:37;21.97;;;7.23;;
55346;SDS011;41218;55.700;38.270;2022-12-11T10:39:41;20.33;;;7.57;;
55346;SDS011;41218;55.700;38.270;2022-12-11T10:44:53;17.73;;;6.77;;
55346;SDS011;41218;55.700;38.270;2022-12-11T10:49:56;17.13;;;7.35;;
55346;SDS011;41218;55.700;38.270;2022-12-11T10:55:21;18.70;;;7.20;;
55346;SDS011;41218;55.700;38.270;2022-12-11T11:00:27;14.98;;;6.57;;
55346;SDS011;41218;55.700;38.270;2022-12-11T11:05:36;19.98;;;7.45;;
55346;SDS011;41218;55.700;38.270;2022-12-11T11:10:37;20.37;;;7.93;;
55346;SDS011;41218;55.700;38.270;2022-12-11T11:15:48;18.57;;;8.13;;
55346;SDS011;41218;55.700;38.270;2022-12-11T11:20:57;16.33;;;6.53;;
55346;SDS011;41218;55.700;38.270;2022-12-11T11:25:58;20.38;;;8.35;;
55346;SDS011;41218;55.700;38.270;2022-12-11T11:31:02;17.65;;;7.60;;
55346;SDS011;41218;55.700;38.270;2022-12-11T11:36:05;17.23;;;7.13;;
55346;SDS011;41218;55.700;38.270;2022-12-11T11:46:20;18.20;;;6.88;;
55346;SDS011;41218;55.700;38.270;2022-12-11T11:51:32;12.95;;;6.47;;
55346;SDS011;41218;55.700;38.270;2022-12-11T11:56:36;16.70;;;6.90;;
55346;SDS011;41218;55.700;38.270;2022-12-11T12:01:36;15.88;;;6.57;;
55346;SDS011;41218;55.700;38.270;2022-12-11T12:22:19;16.42;;;6.45;;
55346;SDS011;41218;55.700;38.270;2022-12-11T12:27:34;15.75;;;6.60;;
55346;SDS011;41218;55.700;38.270;2022-12-11T12:38:17;12.73;;;5.32;;
55346;SDS011;41218;55.700;38.270;2022-12-11T12:48:42;11.00;;;5.10;;
55346;SDS011;41218;55.700;38.270;2022-12-11T12:53:54;11.00;;;4.32;;
55346;SDS011;41218;55.700;38.270;2022-12-11T12:58:57;9.32;;;4.05;;
55346;SDS011;41218;55.700;38.270;2022-12-11T13:03:59;9.57;;;4.00;;
55346;SDS011;41218;55.700;38.270;2022-12-11T13:09:12;9.82;;;4.47;;
55346;SDS011;41218;55.700;38.270;2022-12-11T13:24:27;9.15;;;4.00;;
55346;SDS011;41218;55.700;38.270;2022-12-11T13:29:31;9.73;;;3.67;;
55346;SDS011;41218;55.700;38.270;2022-12-11T13:34:40;9.30;;;3.75;;
55346;SDS011;41218;55.700;38.270;2022-12-11T13:39:44;9.15;;;3.70;;
55346;SDS011;41218;55.700;38.270;2022-12-11T13:44:48;9.90;;;4.15;;
55346;SDS011;41218;55.700;38.270;2022-12-11T13:49:52;9.35;;;3.85;;
55346;SDS011;41218;55.700;38.270;2022-12-11T13:55:12;9.10;;;3.65;;
55346;SDS011;41218;55.700;38.270;2022-12-11T14:00:24;9.45;;;3.63;;
55346;SDS011;41218;55.700;38.270;2022-12-11T14:05:26;10.23;;;3.50;;
55346;SDS011;41218;55.700;38.270;2022-12-11T14:10:29;8.02;;;3.63;;
55346;SDS011;41218;55.700;38.270;2022-12-11T14:15:31;7.40;;;2.85;;
55346;SDS011;41218;55.700;38.270;2022-12-11T14:20:34;6.78;;;3.03;;
55346;SDS011;41218;55.700;38.270;2022-12-11T14:25:34;6.33;;;3.00;;
55346;SDS011;41218;55.700;38.270;2022-12-11T14:30:35;6.13;;;2.93;;
55346;SDS011;41218;55.700;38.270;2022-12-11T14:35:39;4.95;;;2.63;;
55346;SDS011;41218;55.700;38.270;2022-12-11T14:40:43;8.55;;;3.20;;
55346;SDS011;41218;55.700;38.270;2022-12-11T14:45:46;5.40;;;2.67;;
55346;SDS011;41218;55.700;38.270;2022-12-11T14:50:52;8.30;;;3.17;;
55346;SDS011;41218;55.700;38.270;2022-12-11T14:55:56;6.30;;;3.35;;
55346;SDS011;41218;55.700;38.270;2022-12-11T15:01:06;6.07;;;3.05;;
55346;SDS011;41218;55.700;38.270;2022-12-11T15:06:22;8.13;;;2.97;;
55346;SDS011;41218;55.700;38.270;2022-12-11T15:11:29;4.97;;;2.28;;
55346;SDS011;41218;55.700;38.270;2022-12-11T15:16:32;6.47;;;3.15;;
55346;SDS011;41218;55.700;38.270;2022-12-11T15:21:36;5.85;;;2.60;;
55346;SDS011;41218;55.700;38.270;2022-12-11T15:26:38;6.43;;;2.92;;
55346;SDS011;41218;55.700;38.270;2022-12-11T15:31:43;5.30;;;3.13;;
55346;SDS011;41218;55.700;38.270;2022-12-11T15:36:44;6.10;;;3.00;;
55346;SDS011;41218;55.700;38.270;2022-12-11T15:41:44;4.20;;;2.27;;
55346;SDS011;41218;55.700;38.270;2022-12-11T15:46:45;6.03;;;2.70;;
55346;SDS011;41218;55.700;38.270;2022-12-11T15:51:46;5.93;;;3.00;;
55346;SDS011;41218;55.700;38.270;2022-12-11T15:56:46;5.10;;;2.60;;
55346;SDS011;41218;55.700;38.270;2022-12-11T16:01:47;7.97;;;3.33;;
55346;SDS011;41218;55.700;38.270;2022-12-11T16:06:48;6.28;;;3.20;;
55346;SDS011;41218;55.700;38.270;2022-12-11T16:11:48;6.77;;;3.20;;
55346;SDS011;41218;55.700;38.270;2022-12-11T16:16:49;6.93;;;3.50;;
55346;SDS011;41218;55.700;38.270;2022-12-11T16:21:50;6.97;;;2.90;;
55346;SDS011;41218;55.700;38.270;2022-12-11T16:26:51;7.22;;;3.58;;
55346;SDS011;41218;55.700;38.270;2022-12-11T16:31:51;7.40;;;3.47;;
55346;SDS011;41218;55.700;38.270;2022-12-11T16:36:52;6.20;;;2.53;;
55346;SDS011;41218;55.700;38.270;2022-12-11T16:41:56;6.65;;;2.60;;
55346;SDS011;41218;55.700;38.270;2022-12-11T16:46:56;6.13;;;2.70;;
55346;SDS011;41218;55.700;38.270;2022-12-11T16:51:57;6.40;;;2.47;;
55346;SDS011;41218;55.700;38.270;2022-12-11T16:56:58;3.13;;;2.20;;
55346;SDS011;41218;55.700;38.270;2022-12-11T17:01:58;3.37;;;1.90;;
55346;SDS011;41218;55.700;38.270;2022-12-11T17:06:59;1.67;;;1.00;;
55346;SDS011;41218;55.700;38.270;2022-12-11T17:12:00;2.50;;;1.38;;
55346;SDS011;41218;55.700;38.270;2022-12-11T17:17:01;3.53;;;1.60;;
55346;SDS011;41218;55.700;38.270;2022-12-11T17:22:02;3.50;;;1.40;;
55346;SDS011;41218;55.700;38.270;2022-12-11T17:27:03;1.90;;;1.20;;
55346;SDS011;41218;55.700;38.270;2022-12-11T17:32:04;1.88;;;1.30;;
55346;SDS011;41218;55.700;38.270;2022-12-11T17:37:05;1.77;;;1.05;;
55346;SDS011;41218;55.700;38.270;2022-12-11T17:42:06;2.25;;;1.40;;
55346;SDS011;41218;55.700;38.270;2022-12-11T17:47:07;2.35;;;1.25;;
55346;SDS011;41218;55.700;38.270;2022-12-11T17:52:12;1.40;;;1.08;;
55346;SDS011;41218;55.700;38.270;2022-12-11T17:57:13;1.73;;;1.00;;
55346;SDS011;41218;55.700;38.270;2022-12-11T18:02:14;2.25;;;1.08;;
55346;SDS011;41218;55.700;38.270;2022-12-11T18:07:14;1.20;;;0.90;;
55346;SDS011;41218;55.700;38.270;2022-12-11T18:12:16;4.50;;;2.10;;
55346;SDS011;41218;55.700;38.270;2022-12-11T18:17:17;6.70;;;3.05;;
55346;SDS011;41218;55.700;38.270;2022-12-11T18:22:17;4.85;;;2.50;;
55346;SDS011;41218;55.700;38.270;2022-12-11T18:27:18;10.68;;;3.60;;
55346;SDS011;41218;55.700;38.270;2022-12-11T18:32:19;6.57;;;3.30;;
55346;SDS011;41218;55.700;38.270;2022-12-11T18:37:20;4.13;;;2.15;;
55346;SDS011;41218;55.700;38.270;2022-12-11T18:42:21;3.97;;;1.88;;
55346;SDS011;41218;55.700;38.270;2022-12-11T18:47:22;1.67;;;0.98;;
55346;SDS011;41218;55.700;38.270;2022-12-11T18:52:23;1.23;;;0.70;;
55346;SDS011;41218;55.700;38.270;2022-12-11T18:57:24;0.68;;;0.60;;
55346;SDS011;41218;55.700;38.270;2022-12-11T19:02:25;2.40;;;1.10;;
55346;SDS011;41218;55.700;38.270;2022-12-11T19:07:26;2.15;;;1.25;;
55346;SDS011;41218;55.700;38.270;2022-12-11T19:12:26;4.63;;;2.30;;
55346;SDS011;41218;55.700;38.270;2022-12-11T19:17:27;8.47;;;3.37;;
55346;SDS011;41218;55.700;38.270;2022-12-11T19:22:28;7.17;;;3.53;;
55346;SDS011;41218;55.700;38.270;2022-12-11T19:27:28;8.90;;;3.63;;
55346;SDS011;41218;55.700;38.270;2022-12-11T19:32:30;8.23;;;3.90;;
55346;SDS011;41218;55.700;38.270;2022-12-11T19:37:31;7.88;;;3.13;;
55346;SDS011;41218;55.700;38.270;2022-12-11T19:42:31;4.57;;;2.67;;
55346;SDS011;41218;55.700;38.270;2022-12-11T19:47:33;8.60;;;3.10;;
55346;SDS011;41218;55.700;38.270;2022-12-11T19:52:34;6.57;;;3.47;;
55346;SDS011;41218;55.700;38.270;2022-12-11T19:57:35;9.63;;;4.18;;
55346;SDS011;41218;55.700;38.270;2022-12-11T20:02:36;5.80;;;3.28;;
55346;SDS011;41218;55.700;38.270;2022-12-11T20:07:37;6.40;;;3.57;;
55346;SDS011;41218;55.700;38.270;2022-12-11T20:12:37;8.95;;;3.50;;
55346;SDS011;41218;55.700;38.270;2022-12-11T20:17:38;6.10;;;2.70;;
55346;SDS011;41218;55.700;38.270;2022-12-11T20:22:43;5.65;;;2.65;;
55346;SDS011;41218;55.700;38.270;2022-12-11T20:27:44;7.13;;;2.63;;
55346;SDS011;41218;55.700;38.270;2022-12-11T20:32:44;6.50;;;2.03;;
55346;SDS011;41218;55.700;38.270;2022-12-11T20:37:45;4.73;;;2.10;;
55346;SDS011;41218;55.700;38.270;2022-12-11T20:42:46;4.80;;;2.30;;
55346;SDS011;41218;55.700;38.270;2022-12-11T20:47:46;4.80;;;2.10;;
55346;SDS011;41218;55.700;38.270;2022-12-11T20:52:47;5.00;;;2.30;;
55346;SDS011;41218;55.700;38.270;2022-12-11T20:57:48;3.80;;;2.20;;
55346;SDS011;41218;55.700;38.270;2022-12-11T21:02:49;5.13;;;2.80;;
55346;SDS011;41218;55.700;38.270;2022-12-11T21:07:51;4.47;;;2.53;;
55346;SDS011;41218;55.700;38.270;2022-12-11T21:12:53;5.97;;;2.83;;
55346;SDS011;41218;55.700;38.270;2022-12-11T21:17:53;6.63;;;3.27;;
55346;SDS011;41218;55.700;38.270;2022-12-11T21:22:54;7.43;;;3.93;;
55346;SDS011;41218;55.700;38.270;2022-12-11T21:27:56;6.80;;;3.22;;
55346;SDS011;41218;55.700;38.270;2022-12-11T21:32:57;6.83;;;3.57;;
55346;SDS011;41218;55.700;38.270;2022-12-11T21:37:58;10.98;;;4.20;;
55346;SDS011;41218;55.700;38.270;2022-12-11T21:42:58;10.87;;;4.47;;
55346;SDS011;41218;55.700;38.270;2022-12-11T21:47:59;12.60;;;5.00;;
55346;SDS011;41218;55.700;38.270;2022-12-11T21:53:00;14.80;;;5.63;;
55346;SDS011;41218;55.700;38.270;2022-12-11T21:58:01;11.85;;;5.05;;
55346;SDS011;41218;55.700;38.270;2022-12-11T22:03:02;16.73;;;5.80;;
55346;SDS011;41218;55.700;38.270;2022-12-11T22:08:02;17.52;;;6.90;;
55346;SDS011;41218;55.700;38.270;2022-12-11T22:13:03;14.87;;;6.10;;
55346;SDS011;41218;55.700;38.270;2022-12-11T22:18:04;17.20;;;7.20;;
55346;SDS011;41218;55.700;38.270;2022-12-11T22:23:05;20.43;;;7.17;;
55346;SDS011;41218;55.700;38.270;2022-12-11T22:28:05;17.70;;;7.60;;
55346;SDS011;41218;55.700;38.270;2022-12-11T22:33:06;14.63;;;6.20;;
55346;SDS011;41218;55.700;38.270;2022-12-11T22:38:07;19.17;;;7.38;;
55346;SDS011;41218;55.700;38.270;2022-12-11T22:43:08;19.30;;;7.22;;
55346;SDS011;41218;55.700;38.270;2022-12-11T22:48:08;19.47;;;7.93;;
55346;SDS011;41218;55.700;38.270;2022-12-11T22:53:09;16.80;;;7.80;;
55346;SDS011;41218;55.700;38.270;2022-12-11T22:58:10;16.80;;;7.35;;
55346;SDS011;41218;55.700;38.270;2022-12-11T23:03:11;18.57;;;7.20;;
55346;SDS011;41218;55.700;38.270;2022-12-11T23:08:11;18.00;;;7.43;;
55346;SDS011;41218;55.700;38.270;2022-12-11T23:13:12;14.27;;;6.80;;
55346;SDS011;41218;55.700;38.270;2022-12-11T23:18:13;24.02;;;7.20;;
55346;SDS011;41218;55.700;38.270;2022-12-11T23:23:13;24.47;;;7.47;;
55346;SDS011;41218;55.700;38.270;2022-12-11T23:28:14;18.57;;;6.93;;
55346;SDS011;41218;55.700;38.270;2022-12-11T23:33:15;20.93;;;7.33;;
55346;SDS011;41218;55.700;38.270;2022-12-11T23:38:16;16.73;;;6.47;;
55346;SDS011;41218;55.700;38.270;2022-12-11T23:43:19;14.40;;;6.53;;
55346;SDS011;41218;55.700;38.270;2022-12-11T23:48:22;18.17;;;7.13;;
55346;SDS011;41218;55.700;38.270;2022-12-11T23:53:23;22.37;;;7.00;;
55346;SDS011;41218;55.700;38.270;2022-12-11T23:58:24;15.57;;;6.60;;
